createdAt,value
2018-09-18T00:00:30.916Z,1006.81
2018-09-18T00:01:30.903Z,1006.82
2018-09-18T00:02:30.888Z,1006.85
2018-09-18T00:03:30.878Z,1006.83
2018-09-18T00:04:30.885Z,1006.83
2018-09-18T00:05:30.855Z,1006.85
2018-09-18T00:06:30.843Z,1006.85
2018-09-18T00:07:30.835Z,1006.84
2018-09-18T00:08:30.821Z,1006.83
2018-09-18T00:09:30.845Z,1006.83
2018-09-18T00:10:30.807Z,1006.83
2018-09-18T00:11:30.800Z,1006.76
2018-09-18T00:12:30.784Z,1006.79
2018-09-18T00:13:30.766Z,1006.76
2018-09-18T00:14:30.766Z,1006.74
2018-09-18T00:15:30.746Z,1006.78
2018-09-18T00:16:30.733Z,1006.72
2018-09-18T00:17:30.728Z,1006.70
2018-09-18T00:18:30.711Z,1006.72
2018-09-18T00:19:30.731Z,1006.69
2018-09-18T00:20:30.690Z,1006.71
2018-09-18T00:21:30.678Z,1006.69
2018-09-18T00:22:30.667Z,1006.71
2018-09-18T00:23:30.676Z,1006.67
2018-09-18T00:24:30.658Z,1006.70
2018-09-18T00:25:30.633Z,1006.69
2018-09-18T00:26:30.621Z,1006.66
2018-09-18T00:27:30.614Z,1006.65
2018-09-18T00:28:30.601Z,1006.65
2018-09-18T00:29:30.607Z,1006.62
2018-09-18T00:30:30.582Z,1006.63
2018-09-18T00:31:30.590Z,1006.63
2018-09-18T00:32:30.579Z,1006.64
2018-09-18T00:33:30.546Z,1006.64
2018-09-18T00:34:30.551Z,1006.61
2018-09-18T00:35:30.527Z,1006.63
2018-09-18T00:36:30.512Z,1006.65
2018-09-18T00:37:30.528Z,1006.62
2018-09-18T00:38:30.492Z,1006.62
2018-09-18T00:39:30.496Z,1006.61
2018-09-18T00:40:30.512Z,1006.57
2018-09-18T00:41:30.487Z,1006.58
2018-09-18T00:42:30.478Z,1006.56
2018-09-18T00:43:30.436Z,1006.56
2018-09-18T00:44:30.449Z,1006.57
2018-09-18T00:45:30.417Z,1006.56
2018-09-18T00:46:30.404Z,1006.57
2018-09-18T00:47:30.392Z,1006.55
2018-09-18T00:48:30.384Z,1006.53
2018-09-18T00:49:30.380Z,1006.57
2018-09-18T00:50:30.363Z,1006.55
2018-09-18T00:51:30.352Z,1006.55
2018-09-18T00:52:30.362Z,1006.49
2018-09-18T00:53:30.327Z,1006.54
2018-09-18T00:54:30.330Z,1006.52
2018-09-18T00:55:30.318Z,1006.51
2018-09-18T00:56:30.325Z,1006.48
2018-09-18T00:57:30.309Z,1006.46
2018-09-18T00:58:30.269Z,1006.47
2018-09-18T00:59:30.262Z,1006.46
2018-09-18T01:00:30.268Z,1006.45
2018-09-18T01:01:30.243Z,1006.45
2018-09-18T01:02:30.256Z,1006.43
2018-09-18T01:03:30.218Z,1006.43
2018-09-18T01:04:30.204Z,1006.45
2018-09-18T01:05:30.218Z,1006.42
2018-09-18T01:06:30.182Z,1006.41
2018-09-18T01:07:30.171Z,1006.42
2018-09-18T01:08:30.183Z,1006.43
2018-09-18T01:09:30.155Z,1006.42
2018-09-18T01:10:30.158Z,1006.39
2018-09-18T01:11:30.134Z,1006.36
2018-09-18T01:12:30.115Z,1006.32
2018-09-18T01:13:30.110Z,1006.29
2018-09-18T01:14:30.105Z,1006.29
2018-09-18T01:15:30.100Z,1006.33
2018-09-18T01:16:30.070Z,1006.30
2018-09-18T01:17:30.072Z,1006.28
2018-09-18T01:18:30.063Z,1006.28
2018-09-18T01:19:30.036Z,1006.27
2018-09-18T01:20:30.040Z,1006.29
2018-09-18T01:21:30.014Z,1006.29
2018-09-18T01:22:30.012Z,1006.29
2018-09-18T01:23:29.998Z,1006.29
2018-09-18T01:24:29.980Z,1006.28
2018-09-18T01:25:29.984Z,1006.30
2018-09-18T01:26:29.958Z,1006.27
2018-09-18T01:27:29.948Z,1006.23
2018-09-18T01:28:29.950Z,1006.21
2018-09-18T01:29:29.928Z,1006.23
2018-09-18T01:30:29.957Z,1006.25
2018-09-18T01:31:29.919Z,1006.24
2018-09-18T01:32:29.893Z,1006.20
2018-09-18T01:33:29.885Z,1006.21
2018-09-18T01:34:29.874Z,1006.23
2018-09-18T01:35:29.875Z,1006.22
2018-09-18T01:36:29.848Z,1006.22
2018-09-18T01:37:29.844Z,1006.20
2018-09-18T01:38:29.829Z,1006.19
2018-09-18T01:39:29.817Z,1006.14
2018-09-18T01:40:29.819Z,1006.14
2018-09-18T01:41:29.804Z,1006.17
2018-09-18T01:42:29.797Z,1006.17
2018-09-18T01:43:29.781Z,1006.13
2018-09-18T01:44:29.760Z,1006.17
2018-09-18T01:45:29.761Z,1006.14
2018-09-18T01:46:29.744Z,1006.13
2018-09-18T01:47:29.728Z,1006.14
2018-09-18T01:48:29.715Z,1006.16
2018-09-18T01:49:29.705Z,1006.17
2018-09-18T01:50:29.712Z,1006.11
2018-09-18T01:51:29.700Z,1006.10
2018-09-18T01:52:29.671Z,1006.13
2018-09-18T01:53:29.660Z,1006.13
2018-09-18T01:54:29.650Z,1006.11
2018-09-18T01:55:29.650Z,1006.10
2018-09-18T01:56:29.626Z,1006.08
2018-09-18T01:57:29.655Z,1006.09
2018-09-18T01:58:29.627Z,1006.04
2018-09-18T01:59:29.601Z,1006.04
2018-09-18T02:00:29.600Z,1006.05
2018-09-18T02:01:29.571Z,1006.02
2018-09-18T02:02:29.569Z,1006.02
2018-09-18T02:03:29.550Z,1006.03
2018-09-18T02:04:29.581Z,1006.06
2018-09-18T02:05:29.547Z,1006.07
2018-09-18T02:06:29.517Z,1006.08
2018-09-18T02:07:29.515Z,1006.03
2018-09-18T02:08:29.495Z,1006.08
2018-09-18T02:09:29.535Z,1006.02
2018-09-18T02:10:29.497Z,1006.06
2018-09-18T02:11:29.463Z,1006.03
2018-09-18T02:12:29.455Z,1006.02
2018-09-18T02:13:29.440Z,1005.98
2018-09-18T02:14:29.431Z,1005.96
2018-09-18T02:15:29.446Z,1005.95
2018-09-18T02:16:29.412Z,1005.93
2018-09-18T02:17:29.395Z,1005.92
2018-09-18T02:18:29.385Z,1005.91
2018-09-18T02:19:29.373Z,1005.94
2018-09-18T02:20:29.432Z,1005.94
2018-09-18T02:21:29.353Z,1005.92
2018-09-18T02:22:29.340Z,1005.92
2018-09-18T02:23:29.336Z,1005.92
2018-09-18T02:24:29.326Z,1005.92
2018-09-18T02:25:29.341Z,1005.94
2018-09-18T02:26:29.300Z,1005.93
2018-09-18T02:27:29.299Z,1005.90
2018-09-18T02:28:29.279Z,1005.92
2018-09-18T02:29:29.277Z,1005.89
2018-09-18T02:30:29.340Z,1005.89
2018-09-18T02:31:29.255Z,1005.87
2018-09-18T02:32:29.230Z,1005.85
2018-09-18T02:33:29.218Z,1005.88
2018-09-18T02:34:29.207Z,1005.90
2018-09-18T02:35:29.201Z,1005.89
2018-09-18T02:36:29.221Z,1005.87
2018-09-18T02:37:29.190Z,1005.87
2018-09-18T02:38:29.163Z,1005.90
2018-09-18T02:39:29.151Z,1005.88
2018-09-18T02:40:29.141Z,1005.89
2018-09-18T02:41:29.141Z,1005.91
2018-09-18T02:42:29.131Z,1005.92
2018-09-18T02:43:29.118Z,1005.90
2018-09-18T02:44:29.104Z,1005.88
2018-09-18T02:45:29.099Z,1005.89
2018-09-18T02:46:29.090Z,1005.90
2018-09-18T02:47:29.063Z,1005.86
2018-09-18T02:48:29.054Z,1005.85
2018-09-18T02:49:29.048Z,1005.89
2018-09-18T02:50:29.043Z,1005.88
2018-09-18T02:51:29.044Z,1005.83
2018-09-18T02:52:29.008Z,1005.83
2018-09-18T02:53:28.997Z,1005.82
2018-09-18T02:54:28.987Z,1005.79
2018-09-18T02:55:28.974Z,1005.80
2018-09-18T02:56:28.977Z,1005.81
2018-09-18T02:57:28.963Z,1005.80
2018-09-18T02:58:28.941Z,1005.77
2018-09-18T02:59:28.933Z,1005.76
2018-09-18T03:00:28.935Z,1005.75
2018-09-18T03:01:28.921Z,1005.74
2018-09-18T03:02:28.898Z,1005.76
2018-09-18T03:03:28.894Z,1005.75
2018-09-18T03:04:28.878Z,1005.72
2018-09-18T03:05:28.865Z,1005.74
2018-09-18T03:06:28.868Z,1005.76
2018-09-18T03:07:28.842Z,1005.77
2018-09-18T03:08:28.831Z,1005.76
2018-09-18T03:09:28.826Z,1005.74
2018-09-18T03:10:28.810Z,1005.77
2018-09-18T03:11:29.004Z,1005.75
2018-09-18T03:12:28.788Z,1005.72
2018-09-18T03:13:28.789Z,1005.73
2018-09-18T03:14:28.766Z,1005.72
2018-09-18T03:15:28.759Z,1005.75
2018-09-18T03:16:28.754Z,1005.73
2018-09-18T03:17:28.734Z,1005.72
2018-09-18T03:18:28.723Z,1005.73
2018-09-18T03:19:28.710Z,1005.73
2018-09-18T03:20:28.703Z,1005.70
2018-09-18T03:21:28.705Z,1005.70
2018-09-18T03:22:28.678Z,1005.69
2018-09-18T03:23:28.692Z,1005.70
2018-09-18T03:24:28.656Z,1005.68
2018-09-18T03:25:28.685Z,1005.66
2018-09-18T03:26:28.647Z,1005.67
2018-09-18T03:27:28.725Z,1005.63
2018-09-18T03:28:28.615Z,1005.68
2018-09-18T03:29:28.600Z,1005.64
2018-09-18T03:30:28.593Z,1005.65
2018-09-18T03:31:28.590Z,1005.70
2018-09-18T03:32:28.599Z,1005.66
2018-09-18T03:33:28.559Z,1005.61
2018-09-18T03:34:28.550Z,1005.63
2018-09-18T03:35:28.624Z,1005.64
2018-09-18T03:36:28.556Z,1005.64
2018-09-18T03:37:28.541Z,1005.59
2018-09-18T03:38:28.510Z,1005.61
2018-09-18T03:39:28.494Z,1005.60
2018-09-18T03:40:28.490Z,1005.54
2018-09-18T03:41:28.512Z,1005.60
2018-09-18T03:42:28.457Z,1005.56
2018-09-18T03:43:28.450Z,1005.53
2018-09-18T03:44:28.436Z,1005.54
2018-09-18T03:45:28.452Z,1005.52
2018-09-18T03:46:28.412Z,1005.52
2018-09-18T03:47:28.420Z,1005.50
2018-09-18T03:48:28.405Z,1005.50
2018-09-18T03:49:28.381Z,1005.46
2018-09-18T03:50:28.375Z,1005.48
2018-09-18T03:51:28.360Z,1005.46
2018-09-18T03:52:28.360Z,1005.44
2018-09-18T03:53:28.363Z,1005.43
2018-09-18T03:54:28.325Z,1005.43
2018-09-18T03:55:28.334Z,1005.43
2018-09-18T03:56:28.304Z,1005.42
2018-09-18T03:57:28.307Z,1005.46
2018-09-18T03:58:28.301Z,1005.44
2018-09-18T03:59:28.290Z,1005.40
2018-09-18T04:00:28.350Z,1005.43
2018-09-18T04:01:28.278Z,1005.43
2018-09-18T04:02:28.250Z,1005.43
2018-09-18T04:03:28.228Z,1005.43
2018-09-18T04:04:28.238Z,1005.42
2018-09-18T04:05:28.205Z,1005.45
2018-09-18T04:06:28.193Z,1005.40
2018-09-18T04:07:28.215Z,1005.40
2018-09-18T04:08:28.176Z,1005.40
2018-09-18T04:09:28.164Z,1005.40
2018-09-18T04:10:28.159Z,1005.38
2018-09-18T04:11:28.187Z,1005.39
2018-09-18T04:12:28.145Z,1005.40
2018-09-18T04:13:28.114Z,1005.37
2018-09-18T04:14:28.106Z,1005.34
2018-09-18T04:15:28.111Z,1005.35
2018-09-18T04:16:28.117Z,1005.35
2018-09-18T04:17:28.145Z,1005.33
2018-09-18T04:18:28.063Z,1005.28
2018-09-18T04:19:28.054Z,1005.27
2018-09-18T04:20:28.041Z,1005.24
2018-09-18T04:21:28.042Z,1005.28
2018-09-18T04:22:28.047Z,1005.25
2018-09-18T04:23:28.008Z,1005.22
2018-09-18T04:24:28.027Z,1005.26
2018-09-18T04:25:27.992Z,1005.28
2018-09-18T04:26:27.973Z,1005.27
2018-09-18T04:27:27.985Z,1005.32
2018-09-18T04:28:27.951Z,1005.26
2018-09-18T04:29:27.943Z,1005.26
2018-09-18T04:30:27.930Z,1005.27
2018-09-18T04:31:27.917Z,1005.20
2018-09-18T04:32:27.940Z,1005.20
2018-09-18T04:33:27.896Z,1005.22
2018-09-18T04:34:27.884Z,1005.21
2018-09-18T04:35:27.873Z,1005.21
2018-09-18T04:36:27.864Z,1005.21
2018-09-18T04:37:27.885Z,1005.22
2018-09-18T04:38:27.843Z,1005.23
2018-09-18T04:39:27.828Z,1005.22
2018-09-18T04:40:27.818Z,1005.21
2018-09-18T04:41:27.817Z,1005.21
2018-09-18T04:42:27.853Z,1005.19
2018-09-18T04:43:27.796Z,1005.25
2018-09-18T04:44:27.776Z,1005.20
2018-09-18T04:45:27.774Z,1005.19
2018-09-18T04:46:27.759Z,1005.20
2018-09-18T04:47:27.754Z,1005.16
2018-09-18T04:48:27.738Z,1005.16
2018-09-18T04:49:27.730Z,1005.14
2018-09-18T04:50:27.711Z,1005.15
2018-09-18T04:51:27.742Z,1005.18
2018-09-18T04:52:27.698Z,1005.16
2018-09-18T04:53:27.678Z,1005.13
2018-09-18T04:54:27.672Z,1005.15
2018-09-18T04:55:27.678Z,1005.16
2018-09-18T04:56:27.643Z,1005.17
2018-09-18T04:57:27.659Z,1005.18
2018-09-18T04:58:27.621Z,1005.17
2018-09-18T04:59:27.613Z,1005.17
2018-09-18T05:00:27.604Z,1005.17
2018-09-18T05:01:27.608Z,1005.16
2018-09-18T05:02:27.580Z,1005.12
2018-09-18T05:03:27.589Z,1005.13
2018-09-18T05:04:27.554Z,1005.12
2018-09-18T05:05:27.550Z,1005.10
2018-09-18T05:06:27.584Z,1005.11
2018-09-18T05:07:27.523Z,1005.09
2018-09-18T05:08:27.538Z,1005.12
2018-09-18T05:09:27.611Z,1005.09
2018-09-18T05:10:27.493Z,1005.07
2018-09-18T05:11:27.478Z,1005.08
2018-09-18T05:12:27.480Z,1005.10
2018-09-18T05:13:27.472Z,1005.06
2018-09-18T05:14:27.445Z,1005.04
2018-09-18T05:15:27.435Z,1005.11
2018-09-18T05:16:27.423Z,1005.07
2018-09-18T05:17:27.435Z,1005.05
2018-09-18T05:18:27.437Z,1005.11
2018-09-18T05:19:27.389Z,1005.11
2018-09-18T05:20:27.396Z,1005.10
2018-09-18T05:21:27.371Z,1005.10
2018-09-18T05:22:27.361Z,1005.07
2018-09-18T05:23:27.356Z,1005.07
2018-09-18T05:24:27.363Z,1005.05
2018-09-18T05:25:27.374Z,1005.03
2018-09-18T05:26:27.311Z,1005.08
2018-09-18T05:27:27.313Z,1005.07
2018-09-18T05:28:27.333Z,1005.06
2018-09-18T05:29:34.356Z,1005.06
2018-09-18T05:30:27.274Z,1005.06
2018-09-18T05:31:27.273Z,1005.09
2018-09-18T05:32:34.261Z,1005.05
2018-09-18T05:33:27.249Z,1005.06
2018-09-18T05:34:27.225Z,1005.07
2018-09-18T05:35:27.212Z,1005.07
2018-09-18T05:36:27.206Z,1005.04
2018-09-18T05:37:27.191Z,1005.07
2018-09-18T05:38:27.193Z,1005.06
2018-09-18T05:39:27.170Z,1005.06
2018-09-18T05:40:27.166Z,1005.04
2018-09-18T05:41:27.147Z,1005.04
2018-09-18T05:42:27.135Z,1005.06
2018-09-18T05:43:27.164Z,1005.07
2018-09-18T05:44:27.123Z,1005.06
2018-09-18T05:45:27.107Z,1005.05
2018-09-18T05:46:27.112Z,1005.06
2018-09-18T05:47:27.082Z,1005.03
2018-09-18T05:48:27.090Z,1005.01
2018-09-18T05:49:27.061Z,1005.04
2018-09-18T05:50:27.055Z,1005.02
2018-09-18T05:51:27.062Z,1005.01
2018-09-18T05:52:27.026Z,1005.01
2018-09-18T05:53:27.055Z,1005.02
2018-09-18T05:54:27.008Z,1004.96
2018-09-18T05:55:26.991Z,1004.99
2018-09-18T05:56:26.981Z,1005.01
2018-09-18T05:57:26.976Z,1005.00
2018-09-18T05:58:26.972Z,1004.99
2018-09-18T05:59:26.961Z,1005.00
2018-09-18T06:00:26.939Z,1004.99
2018-09-18T06:01:26.930Z,1004.97
2018-09-18T06:02:26.916Z,1005.02
2018-09-18T06:03:26.921Z,1004.99
2018-09-18T06:04:26.909Z,1005.00
2018-09-18T06:05:26.882Z,1005.01
2018-09-18T06:06:26.887Z,1005.03
2018-09-18T06:07:26.860Z,1005.02
2018-09-18T06:08:26.863Z,1004.99
2018-09-18T06:09:26.836Z,1005.01
2018-09-18T06:10:26.835Z,1004.99
2018-09-18T06:11:26.817Z,1005.01
2018-09-18T06:12:26.828Z,1005.00
2018-09-18T06:13:26.827Z,1004.95
2018-09-18T06:14:26.812Z,1004.99
2018-09-18T06:15:26.770Z,1005.00
2018-09-18T06:16:26.760Z,1004.98
2018-09-18T06:17:26.750Z,1005.00
2018-09-18T06:18:26.767Z,1005.02
2018-09-18T06:19:26.729Z,1005.00
2018-09-18T06:20:26.740Z,1005.02
2018-09-18T06:21:26.706Z,1005.00
2018-09-18T06:22:26.695Z,1005.00
2018-09-18T06:23:26.684Z,1004.98
2018-09-18T06:24:26.685Z,1004.98
2018-09-18T06:25:26.663Z,1005.02
2018-09-18T06:26:26.650Z,1005.04
2018-09-18T06:27:26.677Z,1005.02
2018-09-18T06:28:26.629Z,1004.97
2018-09-18T06:29:26.631Z,1005.01
2018-09-18T06:30:26.605Z,1004.99
2018-09-18T06:31:26.595Z,1004.97
2018-09-18T06:32:26.587Z,1004.94
2018-09-18T06:33:26.583Z,1004.97
2018-09-18T06:34:26.574Z,1004.87
2018-09-18T06:35:26.555Z,1004.91
2018-09-18T06:36:26.546Z,1004.88
2018-09-18T06:37:26.547Z,1004.91
2018-09-18T06:38:26.519Z,1004.90
2018-09-18T06:39:26.566Z,1004.88
2018-09-18T06:40:26.500Z,1004.86
2018-09-18T06:41:26.484Z,1004.86
2018-09-18T06:42:26.587Z,1004.86
2018-09-18T06:43:26.462Z,1004.88
2018-09-18T06:44:26.463Z,1004.89
2018-09-18T06:45:26.459Z,1004.87
2018-09-18T06:46:26.430Z,1004.91
2018-09-18T06:47:26.417Z,1004.94
2018-09-18T06:48:26.407Z,1004.94
2018-09-18T06:49:26.407Z,1004.90
2018-09-18T06:50:26.390Z,1004.89
2018-09-18T06:51:26.390Z,1004.88
2018-09-18T06:52:26.366Z,1004.84
2018-09-18T06:53:26.356Z,1004.84
2018-09-18T06:54:26.369Z,1004.78
2018-09-18T06:55:26.334Z,1004.86
2018-09-18T06:56:26.345Z,1004.83
2018-09-18T06:57:26.327Z,1004.86
2018-09-18T06:58:26.303Z,1004.83
2018-09-18T06:59:26.309Z,1004.83
2018-09-18T07:00:26.321Z,1004.79
2018-09-18T07:01:26.290Z,1004.80
2018-09-18T07:02:26.250Z,1004.83
2018-09-18T07:03:26.251Z,1004.78
2018-09-18T07:04:26.244Z,1004.80
2018-09-18T07:05:26.269Z,1004.79
2018-09-18T07:06:26.249Z,1004.80
2018-09-18T07:07:26.202Z,1004.81
2018-09-18T07:08:26.184Z,1004.78
2018-09-18T07:09:26.187Z,1004.78
2018-09-18T07:10:26.168Z,1004.80
2018-09-18T07:11:26.157Z,1004.77
2018-09-18T07:12:26.157Z,1004.78
2018-09-18T07:13:26.137Z,1004.81
2018-09-18T07:14:26.135Z,1004.80
2018-09-18T07:15:26.108Z,1004.80
2018-09-18T07:16:26.102Z,1004.79
2018-09-18T07:17:26.087Z,1004.82
2018-09-18T07:18:26.074Z,1004.80
2018-09-18T07:19:26.078Z,1004.79
2018-09-18T07:20:26.052Z,1004.80
2018-09-18T07:21:26.045Z,1004.81
2018-09-18T07:22:26.046Z,1004.82
2018-09-18T07:23:26.040Z,1004.83
2018-09-18T07:24:26.021Z,1004.80
2018-09-18T07:25:25.997Z,1004.78
2018-09-18T07:26:25.988Z,1004.76
2018-09-18T07:27:25.984Z,1004.77
2018-09-18T07:28:25.966Z,1004.78
2018-09-18T07:29:25.991Z,1004.77
2018-09-18T07:30:25.953Z,1004.79
2018-09-18T07:31:25.932Z,1004.79
2018-09-18T07:32:25.929Z,1004.79
2018-09-18T07:33:25.915Z,1004.77
2018-09-18T07:34:25.913Z,1004.78
2018-09-18T07:35:25.884Z,1004.79
2018-09-18T07:36:25.919Z,1004.79
2018-09-18T07:37:25.865Z,1004.80
2018-09-18T07:38:25.855Z,1004.85
2018-09-18T07:39:25.872Z,1004.82
2018-09-18T07:40:25.830Z,1004.83
2018-09-18T07:41:25.823Z,1004.87
2018-09-18T07:42:25.812Z,1004.82
2018-09-18T07:43:25.798Z,1004.80
2018-09-18T07:44:25.797Z,1004.80
2018-09-18T07:45:25.814Z,1004.79
2018-09-18T07:46:25.782Z,1004.81
2018-09-18T07:47:25.754Z,1004.85
2018-09-18T07:48:25.744Z,1004.84
2018-09-18T07:49:25.733Z,1004.80
2018-09-18T07:50:25.741Z,1004.78
2018-09-18T07:51:25.748Z,1004.75
2018-09-18T07:52:25.715Z,1004.77
2018-09-18T07:53:25.688Z,1004.75
2018-09-18T07:54:25.719Z,1004.72
2018-09-18T07:55:25.680Z,1004.75
2018-09-18T07:56:25.655Z,1004.74
2018-09-18T07:57:25.680Z,1004.74
2018-09-18T07:58:25.632Z,1004.74
2018-09-18T07:59:25.626Z,1004.71
2018-09-18T08:00:25.623Z,1004.72
2018-09-18T08:01:25.607Z,1004.70
2018-09-18T08:02:25.587Z,1004.70
2018-09-18T08:03:25.580Z,1004.74
2018-09-18T08:04:25.579Z,1004.71
2018-09-18T08:05:25.566Z,1004.67
2018-09-18T08:06:25.547Z,1004.66
2018-09-18T08:07:25.541Z,1004.71
2018-09-18T08:08:25.524Z,1004.69
2018-09-18T08:09:25.534Z,1004.69
2018-09-18T08:10:25.515Z,1004.69
2018-09-18T08:11:25.510Z,1004.67
2018-09-18T08:12:25.481Z,1004.70
2018-09-18T08:13:25.466Z,1004.68
2018-09-18T08:14:25.459Z,1004.69
2018-09-18T08:15:25.459Z,1004.71
2018-09-18T08:16:25.433Z,1004.67
2018-09-18T08:17:25.441Z,1004.65
2018-09-18T08:18:25.419Z,1004.63
2018-09-18T08:19:25.471Z,1004.65
2018-09-18T08:20:25.401Z,1004.63
2018-09-18T08:21:25.385Z,1004.63
2018-09-18T08:22:25.373Z,1004.64
2018-09-18T08:23:25.380Z,1004.65
2018-09-18T08:24:25.415Z,1004.60
2018-09-18T08:25:25.367Z,1004.61
2018-09-18T08:26:25.324Z,1004.57
2018-09-18T08:27:25.316Z,1004.56
2018-09-18T08:28:25.307Z,1004.56
2018-09-18T08:29:25.293Z,1004.57
2018-09-18T08:30:25.323Z,1004.55
2018-09-18T08:31:25.275Z,1004.54
2018-09-18T08:32:25.275Z,1004.55
2018-09-18T08:33:25.248Z,1004.55
2018-09-18T08:34:25.239Z,1004.56
2018-09-18T08:35:25.239Z,1004.54
2018-09-18T08:36:25.219Z,1004.60
2018-09-18T08:37:25.206Z,1004.62
2018-09-18T08:38:25.217Z,1004.60
2018-09-18T08:39:25.183Z,1004.62
2018-09-18T08:40:25.201Z,1004.58
2018-09-18T08:41:25.170Z,1004.55
2018-09-18T08:42:25.152Z,1004.57
2018-09-18T08:43:25.161Z,1004.52
2018-09-18T08:44:25.134Z,1004.54
2018-09-18T08:45:25.137Z,1004.54
2018-09-18T08:46:25.122Z,1004.49
2018-09-18T08:47:25.207Z,1004.50
2018-09-18T08:48:25.092Z,1004.46
2018-09-18T08:49:25.079Z,1004.52
2018-09-18T08:50:25.101Z,1004.54
2018-09-18T08:51:25.089Z,1004.58
2018-09-18T08:52:25.071Z,1004.53
2018-09-18T08:53:25.033Z,1004.51
2018-09-18T08:54:25.084Z,1004.49
2018-09-18T08:55:25.098Z,1004.49
2018-09-18T08:56:25.025Z,1004.50
2018-09-18T08:57:25.011Z,1004.48
2018-09-18T08:58:25.024Z,1004.44
2018-09-18T08:59:24.983Z,1004.46
2018-09-18T09:00:24.972Z,1004.41
2018-09-18T09:01:24.951Z,1004.44
2018-09-18T09:02:24.936Z,1004.38
2018-09-18T09:03:24.960Z,1004.44
2018-09-18T09:04:24.915Z,1004.38
2018-09-18T09:05:24.936Z,1004.39
2018-09-18T09:06:24.942Z,1004.45
2018-09-18T09:07:24.908Z,1004.39
2018-09-18T09:08:24.993Z,1004.32
2018-09-18T09:09:24.862Z,1004.30
2018-09-18T09:10:24.871Z,1004.33
2018-09-18T09:11:24.855Z,1004.32
2018-09-18T09:12:24.830Z,1004.36
2018-09-18T09:13:33.933Z,1004.27
2018-09-18T09:14:24.878Z,1004.35
2018-09-18T09:15:33.539Z,1004.33
2018-09-18T09:16:24.793Z,1004.34
2018-09-18T09:17:24.840Z,1004.31
2018-09-18T09:18:24.881Z,1004.30
2018-09-18T09:19:24.777Z,1004.33
2018-09-18T09:20:24.744Z,1004.33
2018-09-18T09:21:24.856Z,1004.30
2018-09-18T09:22:24.820Z,1004.27
2018-09-18T09:23:24.711Z,1004.31
2018-09-18T09:24:24.711Z,1004.32
2018-09-18T09:25:24.690Z,1004.33
2018-09-18T09:26:24.803Z,1004.29
2018-09-18T09:27:24.700Z,1004.35
2018-09-18T09:28:24.685Z,1004.35
2018-09-18T09:29:24.654Z,1004.31
2018-09-18T09:30:24.657Z,1004.23
2018-09-18T09:31:24.676Z,1004.22
2018-09-18T09:32:24.724Z,1004.23
2018-09-18T09:33:24.615Z,1004.26
2018-09-18T09:34:24.603Z,1004.25
2018-09-18T09:35:24.583Z,1004.26
2018-09-18T09:36:24.585Z,1004.28
2018-09-18T09:37:24.617Z,1004.24
2018-09-18T09:38:24.564Z,1004.24
2018-09-18T09:39:24.548Z,1004.27
2018-09-18T09:40:24.538Z,1004.24
2018-09-18T09:41:24.549Z,1004.28
2018-09-18T09:42:24.542Z,1004.25
2018-09-18T09:43:24.501Z,1004.26
2018-09-18T09:44:24.489Z,1004.24
2018-09-18T09:45:24.477Z,1004.27
2018-09-18T09:46:24.478Z,1004.24
2018-09-18T09:47:24.456Z,1004.23
2018-09-18T09:48:24.451Z,1004.20
2018-09-18T09:49:24.434Z,1004.18
2018-09-18T09:50:24.423Z,1004.22
2018-09-18T09:51:24.586Z,1004.18
2018-09-18T09:52:24.402Z,1004.19
2018-09-18T09:53:24.391Z,1004.16
2018-09-18T09:54:24.387Z,1004.14
2018-09-18T09:55:24.371Z,1004.16
2018-09-18T09:56:24.406Z,1004.12
2018-09-18T09:57:24.350Z,1004.15
2018-09-18T09:58:24.338Z,1004.14
2018-09-18T09:59:24.332Z,1004.13
2018-09-18T10:00:24.382Z,1004.10
2018-09-18T10:01:24.344Z,1004.07
2018-09-18T10:02:24.300Z,1004.10
2018-09-18T10:03:24.284Z,1004.10
2018-09-18T10:04:24.276Z,1004.05
2018-09-18T10:05:24.320Z,1004.07
2018-09-18T10:06:24.268Z,1004.05
2018-09-18T10:07:24.244Z,1004.03
2018-09-18T10:08:24.260Z,1004.04
2018-09-18T10:09:24.221Z,1004.05
2018-09-18T10:10:24.274Z,1004.03
2018-09-18T10:11:24.214Z,1004.01
2018-09-18T10:12:24.188Z,1004.03
2018-09-18T10:13:24.178Z,1004.04
2018-09-18T10:14:24.220Z,1004.04
2018-09-18T10:15:24.158Z,1004.01
2018-09-18T10:16:24.166Z,1003.95
2018-09-18T10:17:24.134Z,1003.94
2018-09-18T10:18:24.125Z,1003.97
2018-09-18T10:19:24.123Z,1003.92
2018-09-18T10:20:24.101Z,1003.96
2018-09-18T10:21:24.128Z,1003.92
2018-09-18T10:22:24.080Z,1003.96
2018-09-18T10:23:24.094Z,1003.88
2018-09-18T10:24:24.058Z,1003.86
2018-09-18T10:25:24.059Z,1003.91
2018-09-18T10:26:24.141Z,1003.91
2018-09-18T10:27:24.050Z,1003.88
2018-09-18T10:28:24.016Z,1003.88
2018-09-18T10:29:24.007Z,1003.85
2018-09-18T10:30:24.056Z,1003.86
2018-09-18T10:31:23.992Z,1003.84
2018-09-18T10:32:23.984Z,1003.84
2018-09-18T10:33:23.985Z,1003.85
2018-09-18T10:34:23.958Z,1003.83
2018-09-18T10:35:23.943Z,1003.83
2018-09-18T10:36:23.968Z,1003.80
2018-09-18T10:37:23.993Z,1003.84
2018-09-18T10:38:23.920Z,1003.84
2018-09-18T10:39:23.905Z,1003.81
2018-09-18T10:40:23.884Z,1003.80
2018-09-18T10:41:24.063Z,1003.79
2018-09-18T10:42:23.901Z,1003.79
2018-09-18T10:43:23.857Z,1003.75
2018-09-18T10:44:23.850Z,1003.74
2018-09-18T10:45:23.836Z,1003.76
2018-09-18T10:46:23.852Z,1003.68
2018-09-18T10:47:23.843Z,1003.66
2018-09-18T10:48:23.802Z,1003.68
2018-09-18T10:49:23.808Z,1003.65
2018-09-18T10:50:23.778Z,1003.66
2018-09-18T10:51:23.769Z,1003.58
2018-09-18T10:52:23.772Z,1003.60
2018-09-18T10:53:23.752Z,1003.57
2018-09-18T10:54:23.783Z,1003.61
2018-09-18T10:55:23.810Z,1003.62
2018-09-18T10:56:23.719Z,1003.60
2018-09-18T10:57:23.762Z,1003.59
2018-09-18T10:58:23.693Z,1003.56
2018-09-18T10:59:23.686Z,1003.52
2018-09-18T11:00:23.717Z,1003.55
2018-09-18T11:01:23.666Z,1003.54
2018-09-18T11:02:23.813Z,1003.46
2018-09-18T11:03:23.653Z,1003.46
2018-09-18T11:04:23.662Z,1003.45
2018-09-18T11:05:23.662Z,1003.46
2018-09-18T11:06:23.610Z,1003.51
2018-09-18T11:07:23.621Z,1003.53
2018-09-18T11:08:23.674Z,1003.55
2018-09-18T11:09:23.575Z,1003.51
2018-09-18T11:10:23.625Z,1003.49
2018-09-18T11:11:23.570Z,1003.52
2018-09-18T11:12:23.567Z,1003.54
2018-09-18T11:13:23.607Z,1003.53
2018-09-18T11:14:23.518Z,1003.57
2018-09-18T11:15:23.586Z,1003.59
2018-09-18T11:16:23.522Z,1003.57
2018-09-18T11:17:23.509Z,1003.58
2018-09-18T11:18:23.584Z,1003.57
2018-09-18T11:19:23.470Z,1003.56
2018-09-18T11:20:23.482Z,1003.60
2018-09-18T11:21:23.532Z,1003.56
2018-09-18T11:22:23.577Z,1003.57
2018-09-18T11:23:23.470Z,1003.57
2018-09-18T11:24:23.418Z,1003.57
2018-09-18T11:25:23.405Z,1003.59
2018-09-18T11:26:23.394Z,1003.61
2018-09-18T11:27:23.391Z,1003.62
2018-09-18T11:28:23.373Z,1003.52
2018-09-18T11:29:23.402Z,1003.55
2018-09-18T11:30:23.371Z,1003.53
2018-09-18T11:31:23.390Z,1003.56
2018-09-18T11:32:23.334Z,1003.53
2018-09-18T11:33:23.323Z,1003.55
2018-09-18T11:34:23.319Z,1003.58
2018-09-18T11:35:23.293Z,1003.53
2018-09-18T11:36:23.285Z,1003.49
2018-09-18T11:37:23.284Z,1003.54
2018-09-18T11:38:23.259Z,1003.47
2018-09-18T11:39:23.245Z,1003.46
2018-09-18T11:40:23.234Z,1003.49
2018-09-18T11:41:23.244Z,1003.52
2018-09-18T11:42:23.225Z,1003.50
2018-09-18T11:43:23.200Z,1003.47
2018-09-18T11:44:23.191Z,1003.49
2018-09-18T11:45:23.212Z,1003.48
2018-09-18T11:46:23.168Z,1003.47
2018-09-18T11:47:23.203Z,1003.48
2018-09-18T11:48:23.165Z,1003.41
2018-09-18T11:49:23.167Z,1003.43
2018-09-18T11:50:23.145Z,1003.40
2018-09-18T11:51:23.177Z,1003.42
2018-09-18T11:52:23.115Z,1003.43
2018-09-18T11:53:23.102Z,1003.45
2018-09-18T11:54:23.167Z,1003.42
2018-09-18T11:55:23.074Z,1003.40
2018-09-18T11:56:23.082Z,1003.40
2018-09-18T11:57:23.057Z,1003.41
2018-09-18T11:58:23.054Z,1003.42
2018-09-18T11:59:23.023Z,1003.40
2018-09-18T12:00:23.018Z,1003.45
2018-09-18T12:01:23.009Z,1003.38
2018-09-18T12:02:22.989Z,1003.28
2018-09-18T12:03:22.991Z,1003.38
2018-09-18T12:04:22.968Z,1003.41
2018-09-18T12:05:22.959Z,1003.33